PWK weather

Chicago Executive Airport
Chicago/Prospect Heights/Wheeling, Illinois, United States

Public forecast

Using degrees Fahrenheit for public forecast. Weather courtesy of forecast.io.

METAR (pilot weather report)

Retrieved 2019/06/20 12:52 UTC (39 minutes ago):

KPWK 201252Z 34008KT 10SM OVC005 16/13 A2968 RMK AO2 RAE26 SLP049 P0002 T01560133

TAF (pilot weather forecast)

Closest forecast is Chicago O'Hare International Airport, 8.1 nm (15.1 km) S. Retrieved 2019/06/20 12:42 UTC (49 minutes ago):

TAF KORD 201141Z 2012/2118 35012KT 4SM -SHRA BR OVC004 TEMPO 2012/2014 2SM -SHRA BR OVC003 FM201500 01011KT 6SM BR OVC005 FM201800 01009KT P6SM OVC015 FM202100 03009KT P6SM SCT025 BKN045 FM210200 03005KT P6SM SCT050 BKN150 FM211300 04006KT P6SM SCT150